Time;durP1;ratioP1;P1;durP2;ratioP2;P2;SDS_P1;SDS_P2;PMS_P1;PMS_P2;Temp;Humidity;BMP_temperature;BMP_pressure;BME280_temperature;BME280_humidity;BME280_pressure;Samples;Min_cycle;Max_cycle;Signal;HPM_P1;HPM_P2
2023/07/12 00:01:45;;;;;;;0.52;0.38;;;;;;;;;;5032443;28;20045;-63
2023/07/12 00:04:11;;;;;;;0.30;0.30;;;;;;;;;;5030697;28;20124;-63
2023/07/12 00:06:39;;;;;;;0.40;0.30;;;;;;;;;;5036451;28;20120;-63
2023/07/12 00:09:14;;;;;;;0.30;0.30;;;;;;;;;;5033864;28;20032;-63
2023/07/12 00:11:41;;;;;;;0.22;0.22;;;;;;;;;;5033493;28;20107;-63
2023/07/12 00:14:07;;;;;;;0.50;0.40;;;;;;;;;;5031380;28;20124;-63
2023/07/12 00:16:34;;;;;;;0.30;0.30;;;;;;;;;;5032733;28;20525;-63
2023/07/12 00:19:01;;;;;;;0.63;0.50;;;;;;;;;;5035522;28;20045;-63
2023/07/12 00:21:28;;;;;;;0.40;0.40;;;;;;;;;;5033733;28;20052;-63
2023/07/12 00:23:56;;;;;;;1.65;0.28;;;;;;;;;;5028576;28;20083;-64
2023/07/12 00:26:22;;;;;;;0.95;0.50;;;;;;;;;;5033837;28;20517;-64
2023/07/12 00:28:48;;;;;;;0.30;0.30;;;;;;;;;;5034540;28;20177;-64
2023/07/12 00:31:14;;;;;;;0.40;0.40;;;;;;;;;;5035269;28;20037;-64
2023/07/12 00:33:40;;;;;;;0.30;0.30;;;;;;;;;;5032681;28;20045;-64
2023/07/12 00:36:11;;;;;;;0.30;0.30;;;;;;;;;;5038292;28;20099;-64
2023/07/12 00:38:37;;;;;;;0.30;0.30;;;;;;;;;;5034702;28;20041;-64
2023/07/12 00:41:15;;;;;;;0.30;0.30;;;;;;;;;;5032835;28;20687;-64
2023/07/12 00:43:46;;;;;;;0.32;0.32;;;;;;;;;;5034752;28;20056;-64
2023/07/12 00:46:19;;;;;;;0.70;0.50;;;;;;;;;;5036660;28;20040;-63
2023/07/12 00:48:46;;;;;;;0.55;0.50;;;;;;;;;;5037097;28;20053;-63
2023/07/12 00:51:35;;;;;;;0.52;0.40;;;;;;;;;;5032529;28;20033;-63
2023/07/12 00:54:01;;;;;;;0.57;0.40;;;;;;;;;;5019824;28;20080;-63
2023/07/12 00:56:27;;;;;;;0.40;0.40;;;;;;;;;;5033334;28;20038;-63
2023/07/12 00:58:56;;;;;;;0.45;0.45;;;;;;;;;;5033764;28;20086;-64
2023/07/12 01:01:26;;;;;;;2.40;0.40;;;;;;;;;;5034110;28;20037;-64
2023/07/12 01:03:53;;;;;;;0.70;0.70;;;;;;;;;;5034703;28;20847;-63
2023/07/12 01:06:20;;;;;;;0.32;0.32;;;;;;;;;;5035914;28;20075;-63
2023/07/12 01:08:46;;;;;;;0.50;0.50;;;;;;;;;;5037429;28;20926;-63
2023/07/12 01:11:14;;;;;;;0.75;0.47;;;;;;;;;;5033518;28;20102;-63
2023/07/12 01:13:44;;;;;;;0.50;0.50;;;;;;;;;;5037136;28;20128;-63
2023/07/12 01:16:12;;;;;;;0.32;0.30;;;;;;;;;;5038953;28;20037;-63
2023/07/12 01:18:38;;;;;;;0.40;0.38;;;;;;;;;;5037339;28;20447;-63
2023/07/12 01:21:15;;;;;;;0.55;0.55;;;;;;;;;;5037227;28;20058;-63
2023/07/12 01:23:42;;;;;;;0.63;0.63;;;;;;;;;;5037180;28;20077;-63
2023/07/12 01:26:26;;;;;;;0.47;0.45;;;;;;;;;;5041674;28;20029;-63
2023/07/12 01:28:57;;;;;;;0.60;0.60;;;;;;;;;;5040250;28;20043;-62
2023/07/12 01:31:24;;;;;;;0.60;0.60;;;;;;;;;;5041167;28;20041;-62
2023/07/12 01:33:51;;;;;;;0.73;0.60;;;;;;;;;;5039142;28;20481;-63
2023/07/12 01:36:17;;;;;;;0.98;0.88;;;;;;;;;;5036210;28;20112;-62
2023/07/12 01:38:43;;;;;;;0.57;0.57;;;;;;;;;;5038873;28;20038;-62
2023/07/12 01:41:09;;;;;;;1.08;0.85;;;;;;;;;;5040827;28;20068;-62
2023/07/12 01:43:35;;;;;;;0.73;0.70;;;;;;;;;;5038018;28;20073;-62
2023/07/12 01:46:02;;;;;;;0.98;0.80;;;;;;;;;;5037664;28;20052;-62
2023/07/12 01:48:28;;;;;;;1.45;0.90;;;;;;;;;;5038620;28;20041;-62
2023/07/12 01:50:54;;;;;;;0.73;0.70;;;;;;;;;;5039007;28;20045;-62
2023/07/12 01:53:20;;;;;;;1.20;0.90;;;;;;;;;;5034358;28;20409;-62
2023/07/12 01:55:46;;;;;;;1.27;1.10;;;;;;;;;;5037598;28;20125;-62
2023/07/12 01:58:12;;;;;;;1.30;1.20;;;;;;;;;;5036284;28;20549;-62
2023/07/12 02:00:38;;;;;;;1.52;1.30;;;;;;;;;;5036830;28;20039;-62
2023/07/12 02:03:04;;;;;;;1.50;1.27;;;;;;;;;;5036073;28;20792;-62
2023/07/12 02:05:31;;;;;;;1.20;1.10;;;;;;;;;;5037221;28;20483;-63
2023/07/12 02:07:58;;;;;;;1.45;1.35;;;;;;;;;;5031910;28;20041;-62
2023/07/12 02:10:24;;;;;;;3.10;1.55;;;;;;;;;;5037904;28;20728;-63
2023/07/12 02:12:51;;;;;;;1.05;0.95;;;;;;;;;;5038024;28;20076;-63
2023/07/12 02:15:18;;;;;;;1.30;1.20;;;;;;;;;;5035299;28;20455;-62
2023/07/12 02:17:44;;;;;;;0.85;0.85;;;;;;;;;;5036479;28;20640;-62
2023/07/12 02:20:11;;;;;;;1.60;0.98;;;;;;;;;;5037538;28;20128;-62
2023/07/12 02:22:38;;;;;;;3.42;1.50;;;;;;;;;;5037013;28;20083;-62
2023/07/12 02:25:05;;;;;;;1.50;1.40;;;;;;;;;;5034306;28;20041;-62
2023/07/12 02:27:31;;;;;;;1.50;1.30;;;;;;;;;;5036291;28;20447;-62
2023/07/12 02:29:57;;;;;;;1.88;1.10;;;;;;;;;;5032861;28;20037;-62
2023/07/12 02:32:25;;;;;;;2.30;1.05;;;;;;;;;;5038414;28;20083;-63
2023/07/12 02:34:51;;;;;;;2.67;1.70;;;;;;;;;;5036445;28;20049;-63
2023/07/12 02:37:17;;;;;;;1.95;1.45;;;;;;;;;;5036661;28;20082;-63
2023/07/12 02:39:44;;;;;;;2.13;1.60;;;;;;;;;;5034736;28;20038;-63
2023/07/12 02:42:10;;;;;;;1.73;1.30;;;;;;;;;;5032780;28;20037;-63
2023/07/12 02:44:38;;;;;;;1.10;0.90;;;;;;;;;;5034123;28;20095;-63
2023/07/12 02:47:04;;;;;;;1.77;0.90;;;;;;;;;;5039117;28;20033;-63
2023/07/12 02:49:30;;;;;;;1.42;1.02;;;;;;;;;;5038031;28;20037;-63
2023/07/12 02:51:56;;;;;;;1.58;1.48;;;;;;;;;;5038012;28;20037;-63
2023/07/12 02:54:22;;;;;;;1.55;1.30;;;;;;;;;;5035693;28;20420;-63
2023/07/12 02:56:48;;;;;;;3.08;1.70;;;;;;;;;;5037184;28;20044;-63
2023/07/12 02:59:14;;;;;;;6.10;1.75;;;;;;;;;;5037093;28;20044;-63
2023/07/12 03:01:41;;;;;;;2.70;1.30;;;;;;;;;;5042376;28;20056;-63
2023/07/12 03:04:07;;;;;;;1.33;1.00;;;;;;;;;;5038104;28;20041;-62
2023/07/12 03:06:33;;;;;;;1.33;0.80;;;;;;;;;;5037798;28;20048;-62
2023/07/12 03:08:59;;;;;;;1.35;1.10;;;;;;;;;;5033809;28;20033;-62
2023/07/12 03:11:25;;;;;;;1.30;1.13;;;;;;;;;;5034701;28;20111;-63
2023/07/12 03:13:51;;;;;;;0.98;0.85;;;;;;;;;;5035453;28;20049;-63
2023/07/12 03:16:17;;;;;;;1.63;1.00;;;;;;;;;;5030399;28;20041;-63
2023/07/12 03:18:43;;;;;;;2.22;1.35;;;;;;;;;;5032760;28;20041;-62
2023/07/12 03:21:10;;;;;;;1.05;0.70;;;;;;;;;;5039562;28;20041;-63
2023/07/12 03:23:36;;;;;;;0.93;0.80;;;;;;;;;;5038201;28;20045;-63
2023/07/12 03:26:03;;;;;;;2.22;1.00;;;;;;;;;;5031677;28;20076;-63
2023/07/12 03:28:29;;;;;;;1.65;0.98;;;;;;;;;;5033401;28;20094;-63
2023/07/12 03:30:57;;;;;;;1.48;1.00;;;;;;;;;;5037551;28;20142;-63
2023/07/12 03:33:24;;;;;;;2.30;0.90;;;;;;;;;;5038661;28;20492;-62
2023/07/12 03:35:50;;;;;;;1.85;1.40;;;;;;;;;;5036435;28;20041;-62
2023/07/12 03:38:16;;;;;;;2.72;1.40;;;;;;;;;;5036023;28;20040;-62
2023/07/12 03:40:44;;;;;;;4.35;2.25;;;;;;;;;;5034391;28;20033;-62
2023/07/12 03:43:10;;;;;;;3.22;1.65;;;;;;;;;;5036497;28;20086;-62
2023/07/12 03:45:36;;;;;;;2.75;1.50;;;;;;;;;;5039582;28;20424;-62
2023/07/12 03:48:02;;;;;;;1.70;1.30;;;;;;;;;;5034228;28;20033;-62
2023/07/12 03:50:29;;;;;;;3.08;1.75;;;;;;;;;;5036099;28;20039;-62
2023/07/12 03:52:55;;;;;;;2.78;1.40;;;;;;;;;;5034012;28;20048;-62
2023/07/12 03:55:21;;;;;;;1.58;1.05;;;;;;;;;;5036211;28;20041;-62
2023/07/12 03:57:47;;;;;;;3.90;1.90;;;;;;;;;;5034658;28;20041;-63
2023/07/12 04:00:13;;;;;;;4.60;1.60;;;;;;;;;;5035407;28;20053;-63
2023/07/12 04:02:40;;;;;;;2.90;1.38;;;;;;;;;;5032569;28;20045;-62
2023/07/12 04:05:06;;;;;;;4.22;1.70;;;;;;;;;;5036501;28;20041;-62
2023/07/12 04:07:32;;;;;;;3.42;1.85;;;;;;;;;;5034958;28;20490;-62
2023/07/12 04:09:58;;;;;;;4.93;1.90;;;;;;;;;;5033563;28;20040;-63
2023/07/12 04:12:24;;;;;;;3.08;2.03;;;;;;;;;;5033523;28;20057;-63
2023/07/12 04:14:50;;;;;;;4.55;2.05;;;;;;;;;;5035660;28;20056;-63
2023/07/12 04:17:16;;;;;;;2.67;1.40;;;;;;;;;;5033659;28;20048;-63
2023/07/12 04:19:42;;;;;;;2.75;1.40;;;;;;;;;;5035028;28;20389;-63
2023/07/12 04:22:08;;;;;;;4.43;2.05;;;;;;;;;;5033237;28;20041;-63
2023/07/12 04:24:34;;;;;;;4.15;1.88;;;;;;;;;;5038293;28;20355;-63
2023/07/12 04:27:00;;;;;;;4.43;2.30;;;;;;;;;;5034880;28;20048;-62
2023/07/12 04:29:29;;;;;;;2.58;1.52;;;;;;;;;;5034511;28;20052;-62
2023/07/12 04:31:55;;;;;;;4.88;1.95;;;;;;;;;;5038791;28;20049;-63
2023/07/12 04:34:21;;;;;;;5.72;2.40;;;;;;;;;;5029392;28;20046;-62
2023/07/12 04:36:47;;;;;;;2.88;1.60;;;;;;;;;;5032340;28;20053;-62
2023/07/12 04:39:13;;;;;;;3.03;1.50;;;;;;;;;;5031800;28;20045;-62
2023/07/12 04:41:39;;;;;;;5.15;1.63;;;;;;;;;;5029233;28;20087;-62
2023/07/12 04:44:05;;;;;;;2.75;1.52;;;;;;;;;;5032036;28;20081;-62
2023/07/12 04:46:31;;;;;;;3.53;1.55;;;;;;;;;;5035319;28;20034;-62
2023/07/12 04:48:57;;;;;;;3.78;1.52;;;;;;;;;;5037905;28;20048;-62
2023/07/12 04:51:23;;;;;;;3.63;1.40;;;;;;;;;;5034004;28;20047;-62
2023/07/12 04:53:49;;;;;;;4.25;2.10;;;;;;;;;;5036922;28;20094;-62
2023/07/12 04:56:15;;;;;;;2.95;1.48;;;;;;;;;;5034015;28;20049;-62
2023/07/12 04:58:42;;;;;;;2.25;1.35;;;;;;;;;;5032701;28;20041;-62
2023/07/12 05:01:09;;;;;;;3.28;1.45;;;;;;;;;;5035142;28;20088;-62
2023/07/12 05:03:36;;;;;;;7.55;2.45;;;;;;;;;;5030133;28;20073;-63
2023/07/12 05:06:02;;;;;;;5.40;2.42;;;;;;;;;;5032448;28;20675;-62
2023/07/12 05:08:28;;;;;;;4.18;2.13;;;;;;;;;;5031777;28;20037;-62
2023/07/12 05:11:00;;;;;;;6.22;2.58;;;;;;;;;;5034748;28;20060;-62
2023/07/12 05:13:26;;;;;;;4.43;2.70;;;;;;;;;;5031679;28;20434;-62
2023/07/12 05:15:52;;;;;;;4.13;2.17;;;;;;;;;;5035300;28;20136;-62
2023/07/12 05:18:19;;;;;;;4.90;2.03;;;;;;;;;;5028618;28;20052;-62
2023/07/12 05:20:45;;;;;;;5.00;1.95;;;;;;;;;;5032351;28;20049;-63
2023/07/12 05:23:11;;;;;;;2.33;1.50;;;;;;;;;;5029501;28;20398;-63
2023/07/12 05:25:37;;;;;;;4.20;2.05;;;;;;;;;;5035753;28;20040;-63
2023/07/12 05:28:03;;;;;;;5.15;2.38;;;;;;;;;;5037916;28;20116;-63
2023/07/12 05:30:33;;;;;;;4.47;1.85;;;;;;;;;;5037045;28;20549;-63
2023/07/12 05:32:59;;;;;;;2.20;1.42;;;;;;;;;;5037341;28;20047;-63
2023/07/12 05:35:25;;;;;;;3.40;1.80;;;;;;;;;;5034162;28;20156;-63
2023/07/12 05:37:51;;;;;;;2.50;1.20;;;;;;;;;;5036769;28;20128;-63
2023/07/12 05:40:17;;;;;;;1.73;1.00;;;;;;;;;;5035674;28;20033;-63
2023/07/12 05:42:43;;;;;;;3.58;1.25;;;;;;;;;;5036077;28;20068;-63
2023/07/12 05:45:10;;;;;;;2.85;1.42;;;;;;;;;;5036583;28;20033;-63
2023/07/12 05:47:37;;;;;;;4.85;1.65;;;;;;;;;;5032278;28;20036;-63
2023/07/12 05:50:05;;;;;;;3.22;1.55;;;;;;;;;;5038496;28;20037;-63
2023/07/12 05:52:31;;;;;;;1.63;1.20;;;;;;;;;;5038632;28;20033;-63
2023/07/12 05:54:57;;;;;;;6.75;1.83;;;;;;;;;;5040532;28;21600;-63
2023/07/12 05:57:23;;;;;;;6.63;2.63;;;;;;;;;;5040758;28;20075;-63
2023/07/12 05:59:49;;;;;;;9.32;3.08;;;;;;;;;;5036957;28;20044;-63
2023/07/12 06:02:15;;;;;;;6.55;2.83;;;;;;;;;;5036706;28;20045;-63
2023/07/12 06:04:41;;;;;;;8.73;3.08;;;;;;;;;;5039947;28;20044;-63
2023/07/12 06:07:07;;;;;;;5.70;2.35;;;;;;;;;;5038261;28;20045;-63
2023/07/12 06:09:33;;;;;;;6.95;3.03;;;;;;;;;;5036202;28;20113;-63
2023/07/12 06:11:59;;;;;;;6.22;2.38;;;;;;;;;;5034571;28;20100;-63
2023/07/12 06:14:25;;;;;;;5.18;2.10;;;;;;;;;;5037122;28;20532;-63
2023/07/12 06:16:51;;;;;;;1.85;1.50;;;;;;;;;;5032747;28;20124;-63
2023/07/12 06:19:17;;;;;;;9.18;2.83;;;;;;;;;;5039910;28;20430;-63
2023/07/12 06:21:43;;;;;;;4.15;1.83;;;;;;;;;;5035244;28;20049;-63
2023/07/12 06:24:09;;;;;;;6.85;1.90;;;;;;;;;;5036905;28;20047;-63
2023/07/12 06:26:35;;;;;;;3.60;1.88;;;;;;;;;;5038043;28;20042;-63
2023/07/12 06:29:02;;;;;;;6.75;2.58;;;;;;;;;;5034659;28;20055;-63
2023/07/12 06:31:28;;;;;;;3.83;1.92;;;;;;;;;;5036118;28;20052;-63
2023/07/12 06:33:54;;;;;;;3.78;1.70;;;;;;;;;;5035563;28;20126;-63
2023/07/12 06:36:20;;;;;;;2.95;1.50;;;;;;;;;;5034062;28;20037;-63
2023/07/12 06:38:46;;;;;;;4.00;1.80;;;;;;;;;;5042960;28;20098;-63
2023/07/12 06:41:13;;;;;;;4.10;1.60;;;;;;;;;;5033753;28;20091;-63
2023/07/12 06:43:39;;;;;;;3.58;2.20;;;;;;;;;;5033528;28;20588;-63
2023/07/12 06:46:05;;;;;;;2.65;1.60;;;;;;;;;;5035218;28;20052;-63
2023/07/12 06:48:31;;;;;;;4.63;1.83;;;;;;;;;;5036444;28;20039;-63
2023/07/12 06:50:57;;;;;;;7.15;2.55;;;;;;;;;;5036132;28;20045;-63
2023/07/12 06:53:23;;;;;;;8.23;2.80;;;;;;;;;;5038715;28;20033;-63
2023/07/12 06:55:49;;;;;;;6.43;2.53;;;;;;;;;;5039479;28;20053;-63
2023/07/12 06:58:15;;;;;;;8.43;2.97;;;;;;;;;;5033939;28;20095;-63
2023/07/12 07:00:42;;;;;;;4.68;2.15;;;;;;;;;;5034279;28;20041;-63
2023/07/12 07:03:09;;;;;;;8.10;2.47;;;;;;;;;;5033536;28;20049;-63
2023/07/12 07:05:37;;;;;;;5.18;2.10;;;;;;;;;;5036156;28;20052;-64
2023/07/12 07:08:03;;;;;;;4.57;1.88;;;;;;;;;;5034287;28;20033;-63
2023/07/12 07:10:29;;;;;;;6.57;2.50;;;;;;;;;;5032911;28;20037;-63
2023/07/12 07:12:55;;;;;;;7.40;2.38;;;;;;;;;;5035176;28;20045;-63
2023/07/12 07:15:21;;;;;;;4.05;1.77;;;;;;;;;;5035437;28;20033;-63
2023/07/12 07:17:47;;;;;;;5.32;2.35;;;;;;;;;;5034967;28;20068;-63
2023/07/12 07:20:13;;;;;;;4.05;2.00;;;;;;;;;;5032708;28;20465;-63
2023/07/12 07:22:39;;;;;;;2.72;1.50;;;;;;;;;;5032593;28;20455;-63
2023/07/12 07:25:06;;;;;;;3.33;1.48;;;;;;;;;;5035742;28;20036;-63
2023/07/12 07:27:32;;;;;;;3.95;1.80;;;;;;;;;;5036926;28;20041;-63
2023/07/12 07:29:58;;;;;;;4.25;1.75;;;;;;;;;;5030356;28;20487;-63
2023/07/12 07:32:24;;;;;;;6.13;2.15;;;;;;;;;;5031880;28;20045;-65
2023/07/12 07:34:50;;;;;;;4.82;1.98;;;;;;;;;;5032852;28;20051;-61
2023/07/12 07:37:16;;;;;;;3.95;1.80;;;;;;;;;;5034012;28;20118;-63
2023/07/12 07:39:42;;;;;;;4.18;2.13;;;;;;;;;;5027375;28;20080;-62
2023/07/12 07:42:08;;;;;;;6.97;2.55;;;;;;;;;;5037197;28;20110;-61
2023/07/12 07:44:34;;;;;;;4.70;1.42;;;;;;;;;;5045479;28;20043;-64
2023/07/12 07:47:00;;;;;;;4.30;2.00;;;;;;;;;;5040637;28;20033;-64
2023/07/12 07:49:26;;;;;;;2.97;1.48;;;;;;;;;;5031202;28;20035;-64
2023/07/12 07:51:54;;;;;;;4.07;2.25;;;;;;;;;;5046497;28;20037;-64
2023/07/12 07:54:20;;;;;;;3.13;1.52;;;;;;;;;;5040220;28;20060;-64
2023/07/12 07:56:46;;;;;;;3.22;1.55;;;;;;;;;;5045913;28;20072;-63
2023/07/12 07:59:12;;;;;;;6.38;3.00;;;;;;;;;;5029527;28;20413;-63
2023/07/12 08:01:38;;;;;;;6.43;2.35;;;;;;;;;;5043423;28;20132;-63
2023/07/12 08:04:04;;;;;;;6.82;2.88;;;;;;;;;;5035371;28;20136;-63
2023/07/12 08:06:30;;;;;;;4.40;2.20;;;;;;;;;;5033006;28;20041;-63
2023/07/12 08:08:56;;;;;;;6.30;2.33;;;;;;;;;;5040747;28;20033;-64
2023/07/12 08:11:22;;;;;;;5.70;2.30;;;;;;;;;;5040250;28;20521;-64
2023/07/12 08:13:48;;;;;;;4.05;1.77;;;;;;;;;;5033577;28;20091;-63
2023/07/12 08:16:14;;;;;;;5.25;2.33;;;;;;;;;;5041878;28;20041;-63
2023/07/12 08:18:40;;;;;;;3.65;1.95;;;;;;;;;;5031762;28;20045;-63
2023/07/12 08:21:06;;;;;;;1.85;1.45;;;;;;;;;;5024882;28;20048;-64
2023/07/12 08:23:32;;;;;;;4.43;1.67;;;;;;;;;;5024645;28;20044;-63
2023/07/12 08:25:59;;;;;;;3.38;1.50;;;;;;;;;;5024955;28;20052;-63
2023/07/12 08:28:25;;;;;;;1.98;1.30;;;;;;;;;;5024140;28;20110;-63
2023/07/12 08:30:51;;;;;;;4.30;1.60;;;;;;;;;;5024644;28;20494;-63
2023/07/12 08:33:17;;;;;;;4.45;1.77;;;;;;;;;;5028996;28;20139;-63
2023/07/12 08:35:43;;;;;;;3.83;2.10;;;;;;;;;;5030809;28;20045;-64
2023/07/12 08:38:10;;;;;;;4.78;1.95;;;;;;;;;;5044166;28;20048;-64
2023/07/12 08:40:41;;;;;;;2.25;1.30;;;;;;;;;;5045528;28;20210;-64
2023/07/12 08:43:10;;;;;;;2.90;1.23;;;;;;;;;;5043927;28;20091;-63
2023/07/12 08:45:36;;;;;;;4.60;1.80;;;;;;;;;;5045162;28;20501;-63
2023/07/12 08:48:04;;;;;;;5.50;2.03;;;;;;;;;;5044124;28;20037;-63
2023/07/12 08:50:35;;;;;;;2.97;1.35;;;;;;;;;;5032946;28;20045;-63
2023/07/12 08:53:04;;;;;;;3.05;1.40;;;;;;;;;;5036208;28;20041;-64
2023/07/12 08:55:33;;;;;;;3.80;1.55;;;;;;;;;;5032793;28;20048;-64
2023/07/12 08:58:10;;;;;;;2.78;1.60;;;;;;;;;;5039335;28;20041;-64
2023/07/12 09:00:37;;;;;;;3.88;2.00;;;;;;;;;;5036429;28;20687;-64
2023/07/12 09:03:03;;;;;;;2.53;1.27;;;;;;;;;;5042319;28;20037;-64
2023/07/12 09:05:29;;;;;;;1.80;1.30;;;;;;;;;;5037453;28;20076;-64
2023/07/12 09:07:57;;;;;;;3.47;1.40;;;;;;;;;;5034023;28;20049;-64
2023/07/12 09:10:34;;;;;;;3.15;1.70;;;;;;;;;;5025757;28;20069;-64
2023/07/12 09:13:01;;;;;;;4.18;1.45;;;;;;;;;;5032526;28;20216;-64
2023/07/12 09:15:37;;;;;;;2.15;1.00;;;;;;;;;;5030313;28;20044;-64
2023/07/12 09:18:08;;;;;;;2.67;1.75;;;;;;;;;;5043222;28;20077;-64
2023/07/12 09:20:35;;;;;;;4.13;1.25;;;;;;;;;;5044570;28;20413;-64
2023/07/12 09:23:01;;;;;;;2.45;1.10;;;;;;;;;;5030991;28;20048;-63
2023/07/12 09:25:34;;;;;;;2.00;0.80;;;;;;;;;;5033273;28;20074;-64
2023/07/12 09:28:01;;;;;;;2.88;1.13;;;;;;;;;;5028495;28;20100;-64
2023/07/12 09:30:29;;;;;;;3.58;1.42;;;;;;;;;;5029706;28;20386;-63
2023/07/12 09:32:56;;;;;;;2.22;1.23;;;;;;;;;;5027533;28;20050;-63
2023/07/12 09:35:28;;;;;;;1.65;1.10;;;;;;;;;;5037521;28;20070;-63
2023/07/12 09:37:54;;;;;;;;;;;;;;;;;;5028855;28;20594;-63
2023/07/12 09:40:20;;;;;;;2.13;1.10;;;;;;;;;;5037875;28;19920;-63
2023/07/12 09:42:48;;;;;;;1.17;0.63;;;;;;;;;;5048143;28;20091;-64
2023/07/12 09:45:14;;;;;;;1.98;0.95;;;;;;;;;;5042742;28;20042;-64
2023/07/12 09:48:03;;;;;;;0.93;0.60;;;;;;;;;;5037849;28;20072;-63
2023/07/12 09:50:32;;;;;;;1.77;1.05;;;;;;;;;;5035362;28;20566;-63
2023/07/12 09:53:10;;;;;;;2.10;1.15;;;;;;;;;;5028027;28;20042;-63
2023/07/12 09:55:36;;;;;;;1.77;0.80;;;;;;;;;;5036001;28;20120;-63
2023/07/12 09:58:02;;;;;;;2.58;1.13;;;;;;;;;;5045710;28;20394;-63
2023/07/12 10:00:34;;;;;;;1.83;1.15;;;;;;;;;;5045117;28;20047;-63
2023/07/12 10:03:00;;;;;;;;;;;;;;;;;;5028062;28;20053;-63
2023/07/12 10:05:26;;;;;;;2.10;0.90;;;;;;;;;;5037492;28;19921;-63
2023/07/12 10:07:53;;;;;;;1.60;0.90;;;;;;;;;;5046598;28;20557;-63
2023/07/12 10:10:27;;;;;;;3.03;0.82;;;;;;;;;;5046887;28;20048;-65
2023/07/12 10:13:01;;;;;;;2.15;1.00;;;;;;;;;;5039726;28;20056;-65
2023/07/12 10:15:29;;;;;;;1.55;0.80;;;;;;;;;;5038446;28;20045;-64
2023/07/12 10:17:55;;;;;;;1.13;0.70;;;;;;;;;;5043026;28;20516;-64
2023/07/12 10:20:23;;;;;;;1.23;0.88;;;;;;;;;;5046292;28;20098;-64
2023/07/12 10:22:50;;;;;;;1.42;0.80;;;;;;;;;;5046093;28;20047;-63
2023/07/12 10:25:23;;;;;;;0.60;0.60;;;;;;;;;;5046706;28;20051;-63
2023/07/12 10:27:58;;;;;;;0.90;0.80;;;;;;;;;;5047078;28;20067;-63
2023/07/12 10:30:25;;;;;;;1.80;0.70;;;;;;;;;;5046875;28;20037;-64
2023/07/12 10:33:03;;;;;;;1.27;0.65;;;;;;;;;;5046989;28;20045;-64
2023/07/12 10:35:35;;;;;;;2.95;1.08;;;;;;;;;;5045375;28;20444;-64
2023/07/12 10:38:09;;;;;;;1.30;0.98;;;;;;;;;;5044413;28;20052;-64
2023/07/12 10:40:40;;;;;;;1.35;1.00;;;;;;;;;;5045569;28;20076;-64
2023/07/12 10:43:12;;;;;;;0.80;0.60;;;;;;;;;;5044966;28;20040;-64
2023/07/12 10:45:38;;;;;;;0.73;0.60;;;;;;;;;;5044831;28;20040;-64
2023/07/12 10:48:05;;;;;;;0.95;0.60;;;;;;;;;;5045206;28;20060;-64
2023/07/12 10:50:44;;;;;;;0.98;0.40;;;;;;;;;;5044110;28;20051;-64
2023/07/12 10:53:22;;;;;;;1.20;0.63;;;;;;;;;;5046451;28;20099;-64
2023/07/12 10:55:55;;;;;;;1.20;0.63;;;;;;;;;;5046829;28;20120;-64
2023/07/12 10:58:21;;;;;;;1.70;0.80;;;;;;;;;;5045863;28;20041;-64
2023/07/12 11:00:51;;;;;;;0.60;0.60;;;;;;;;;;5046348;28;20045;-64
2023/07/12 11:03:22;;;;;;;0.82;0.45;;;;;;;;;;5045704;28;20049;-64
2023/07/12 11:05:58;;;;;;;0.85;0.40;;;;;;;;;;5046380;28;20090;-64
2023/07/12 11:08:33;;;;;;;0.95;0.50;;;;;;;;;;5046442;28;20071;-64
2023/07/12 11:11:01;;;;;;;1.55;0.50;;;;;;;;;;5045318;28;20517;-64
2023/07/12 11:13:33;;;;;;;1.25;0.52;;;;;;;;;;5046281;28;20079;-64
2023/07/12 11:16:05;;;;;;;4.20;1.13;;;;;;;;;;5046281;28;20041;-64
2023/07/12 11:18:33;;;;;;;0.80;0.52;;;;;;;;;;5045327;28;20116;-64
2023/07/12 11:21:01;;;;;;;0.40;0.40;;;;;;;;;;5046447;28;20044;-64
2023/07/12 11:23:27;;;;;;;1.33;0.45;;;;;;;;;;5045730;28;20135;-64
2023/07/12 11:25:57;;;;;;;1.60;0.73;;;;;;;;;;5045838;28;20207;-64
2023/07/12 11:28:23;;;;;;;2.15;0.60;;;;;;;;;;5046077;28;20045;-64
2023/07/12 11:31:08;;;;;;;2.08;0.70;;;;;;;;;;5045816;28;20045;-64
2023/07/12 11:33:35;;;;;;;2.15;0.52;;;;;;;;;;5045523;28;20049;-64
2023/07/12 11:36:18;;;;;;;1.33;0.70;;;;;;;;;;5045696;28;20045;-64
2023/07/12 11:38:46;;;;;;;1.85;0.38;;;;;;;;;;5045168;28;20086;-64
2023/07/12 11:41:16;;;;;;;2.53;1.00;;;;;;;;;;5045836;28;20375;-64
2023/07/12 11:43:43;;;;;;;2.80;1.20;;;;;;;;;;5045821;28;20123;-63
2023/07/12 11:46:19;;;;;;;3.05;0.82;;;;;;;;;;5044808;28;20279;-63
2023/07/12 11:48:49;;;;;;;1.38;0.60;;;;;;;;;;5045569;28;20049;-63
2023/07/12 11:51:20;;;;;;;1.30;0.75;;;;;;;;;;5045479;28;20049;-64
2023/07/12 11:53:54;;;;;;;1.75;0.60;;;;;;;;;;5045024;28;20047;-64
2023/07/12 11:56:20;;;;;;;3.35;0.65;;;;;;;;;;5045465;28;20041;-64
2023/07/12 11:58:46;;;;;;;2.03;0.70;;;;;;;;;;5045470;28;20127;-63
2023/07/12 12:01:14;;;;;;;1.75;0.60;;;;;;;;;;5044220;28;20111;-64
2023/07/12 12:03:40;;;;;;;0.93;0.50;;;;;;;;;;5045088;28;20490;-64
2023/07/12 12:06:06;;;;;;;2.05;0.50;;;;;;;;;;5045617;28;20053;-64
2023/07/12 12:08:33;;;;;;;1.05;0.52;;;;;;;;;;5043426;28;20039;-64
2023/07/12 12:10:59;;;;;;;0.65;0.50;;;;;;;;;;5045146;28;20479;-64
2023/07/12 12:13:27;;;;;;;2.25;0.60;;;;;;;;;;5044684;28;20049;-64
2023/07/12 12:16:03;;;;;;;0.80;0.50;;;;;;;;;;5045097;28;20547;-64
2023/07/12 12:18:30;;;;;;;0.90;0.50;;;;;;;;;;5043921;28;20040;-64
2023/07/12 12:20:58;;;;;;;2.05;0.55;;;;;;;;;;5044409;28;20049;-64
2023/07/12 12:23:28;;;;;;;2.00;0.40;;;;;;;;;;5045045;28;20049;-64
2023/07/12 12:25:58;;;;;;;1.85;0.47;;;;;;;;;;5045188;28;20041;-64
2023/07/12 12:28:28;;;;;;;1.45;0.30;;;;;;;;;;5044167;28;20053;-64
2023/07/12 12:31:13;;;;;;;1.45;0.50;;;;;;;;;;5045503;28;20049;-64
2023/07/12 12:33:44;;;;;;;0.55;0.35;;;;;;;;;;5044888;28;20037;-64
2023/07/12 12:36:21;;;;;;;0.63;0.30;;;;;;;;;;5042736;28;20047;-64
2023/07/12 12:38:57;;;;;;;0.60;0.40;;;;;;;;;;5044796;28;20072;-64
2023/07/12 12:41:23;;;;;;;0.80;0.38;;;;;;;;;;5044978;28;20049;-64
2023/07/12 12:43:56;;;;;;;2.63;0.30;;;;;;;;;;5044196;28;20036;-64
2023/07/12 12:46:22;;;;;;;2.70;0.57;;;;;;;;;;5044770;28;20045;-64
2023/07/12 12:48:52;;;;;;;1.13;0.30;;;;;;;;;;5043946;28;20041;-64
2023/07/12 12:51:18;;;;;;;0.77;0.40;;;;;;;;;;5044449;28;20052;-64
2023/07/12 12:53:45;;;;;;;0.20;0.10;;;;;;;;;;5044777;28;20044;-64
2023/07/12 12:56:11;;;;;;;0.82;0.20;;;;;;;;;;5043842;28;20037;-64
2023/07/12 12:58:38;;;;;;;0.63;0.30;;;;;;;;;;5044645;28;20083;-64
2023/07/12 13:01:04;;;;;;;0.47;0.10;;;;;;;;;;5047613;28;20394;-64
2023/07/12 13:03:30;;;;;;;1.05;0.28;;;;;;;;;;5047831;28;20049;-64
2023/07/12 13:05:56;;;;;;;2.63;0.40;;;;;;;;;;5049275;28;20045;-64
2023/07/12 13:08:22;;;;;;;1.02;0.40;;;;;;;;;;5048823;28;20044;-63
2023/07/12 13:10:48;;;;;;;0.75;0.22;;;;;;;;;;5047702;28;20065;-63
2023/07/12 13:13:15;;;;;;;0.38;0.28;;;;;;;;;;5048259;28;20402;-64
2023/07/12 13:15:41;;;;;;;1.02;0.25;;;;;;;;;;5041050;28;20037;-64
2023/07/12 13:18:11;;;;;;;1.42;0.43;;;;;;;;;;5037917;28;20049;-64
2023/07/12 13:20:37;;;;;;;0.85;0.40;;;;;;;;;;5036239;28;20048;-64
2023/07/12 13:23:03;;;;;;;1.02;0.50;;;;;;;;;;5031398;28;20194;-64
2023/07/12 13:25:29;;;;;;;1.08;0.47;;;;;;;;;;5031877;28;20045;-64
2023/07/12 13:27:56;;;;;;;0.63;0.32;;;;;;;;;;5034796;28;20037;-64
2023/07/12 13:30:25;;;;;;;1.05;0.30;;;;;;;;;;5031568;28;20029;-64
2023/07/12 13:32:51;;;;;;;0.55;0.32;;;;;;;;;;5033531;28;20046;-64
2023/07/12 13:35:19;;;;;;;2.25;0.60;;;;;;;;;;5031781;28;20485;-64
2023/07/12 13:37:45;;;;;;;1.52;0.50;;;;;;;;;;5035008;28;20053;-64
2023/07/12 13:40:17;;;;;;;0.73;0.40;;;;;;;;;;5028543;28;20037;-64
2023/07/12 13:42:46;;;;;;;1.05;0.40;;;;;;;;;;5041265;28;20494;-64
2023/07/12 13:45:12;;;;;;;0.40;0.28;;;;;;;;;;5042427;28;20382;-64
2023/07/12 13:47:39;;;;;;;0.68;0.50;;;;;;;;;;5043581;28;20033;-64
2023/07/12 13:50:05;;;;;;;1.05;0.35;;;;;;;;;;5029613;28;20049;-64
2023/07/12 13:52:32;;;;;;;0.70;0.50;;;;;;;;;;5036084;28;20037;-64
2023/07/12 13:54:59;;;;;;;0.73;0.50;;;;;;;;;;5040594;28;20052;-64
2023/07/12 13:57:28;;;;;;;0.95;0.50;;;;;;;;;;5036195;28;20053;-64
2023/07/12 13:59:54;;;;;;;0.20;0.20;;;;;;;;;;5027133;28;20042;-65
2023/07/12 14:02:20;;;;;;;2.25;0.60;;;;;;;;;;5027514;28;20041;-64
2023/07/12 14:04:46;;;;;;;0.40;0.30;;;;;;;;;;5034632;28;20544;-64
2023/07/12 14:07:13;;;;;;;1.00;0.30;;;;;;;;;;5033328;28;20051;-64
2023/07/12 14:09:39;;;;;;;0.25;0.25;;;;;;;;;;5039390;28;20041;-64
2023/07/12 14:12:11;;;;;;;0.38;0.32;;;;;;;;;;5025634;28;20064;-64
2023/07/12 14:14:37;;;;;;;1.52;0.60;;;;;;;;;;5034719;28;20049;-64
2023/07/12 14:17:03;;;;;;;0.65;0.40;;;;;;;;;;5028098;28;20045;-65
2023/07/12 14:19:29;;;;;;;0.60;0.60;;;;;;;;;;5029159;28;20037;-65
2023/07/12 14:21:55;;;;;;;0.65;0.45;;;;;;;;;;5030028;28;20548;-65
2023/07/12 14:24:21;;;;;;;0.40;0.28;;;;;;;;;;5032622;28;20045;-64
2023/07/12 14:26:47;;;;;;;0.93;0.52;;;;;;;;;;5045918;28;20354;-64
2023/07/12 14:29:13;;;;;;;1.02;0.30;;;;;;;;;;5041594;28;20485;-64
2023/07/12 14:31:41;;;;;;;1.20;0.60;;;;;;;;;;5045958;28;20041;-64
2023/07/12 14:34:08;;;;;;;0.40;0.30;;;;;;;;;;5040330;28;20053;-65
2023/07/12 14:36:34;;;;;;;1.45;0.50;;;;;;;;;;5027775;28;20056;-64
2023/07/12 14:39:00;;;;;;;2.20;0.65;;;;;;;;;;5026186;28;20037;-64
2023/07/12 14:41:28;;;;;;;1.05;0.43;;;;;;;;;;5026776;28;20882;-64
2023/07/12 14:44:15;;;;;;;1.20;0.50;;;;;;;;;;5034803;28;20095;-64
2023/07/12 14:46:42;;;;;;;1.58;0.80;;;;;;;;;;5032861;28;20038;-64